Latest Weather Observations for Renmark Airport

IDS60801

Issued at 11:01 am CST Sunday 31 July 2016 (issued every 30 minutes, with the page automatically refreshed every 10 minutes)

About weather observations | Map of weather stations | Latest weather observations for SA | Other Formats
Station Details ID: 024048 Name: RENMARK AERO Lat: -34.20 Lon: 140.68 Height: 31.5 m
Data from the previous 72 hours. | See also: Recent months at Renmark Airport
Date/Time
CST
Temp
°C
App
Temp
°C
Dew
Point
°C
Rel
Hum
%
Delta-T
°C
Wind Press
QNH
hPa
Press
MSL
hPa
Rain since
9am
mm
Dir  Spd
km/h
Gust
km/h
Spd
kts
Gust
kts
31/11:00am 15.7 14.0 8.4 62 3.7 ENE 7 11 4 6 1016.6 1016.6 0.0
31/10:30am 15.5 15.3 9.0 65 3.3 CALM 0 0 0 0 1017.3 1017.3 0.0
31/10:00am 14.7 13.1 8.2 65 3.3 WSW 6 9 3 5 1017.7 1017.7 0.0
31/09:30am 13.4 11.3 6.7 64 3.2 WSW 7 11 4 6 1017.4 1017.4 0.0
31/09:00am 12.1 9.5 5.9 66 2.9 WSW 9 11 5 6 1017.6 1017.6 0.2
31/08:30am 11.5 9.3 6.0 69 2.6 W 7 11 4 6 1017.5 1017.5 0.2
31/08:00am 7.6 6.6 7.2 97 0.2 WSW 2 7 1 4 1017.2 1017.2 0.2
31/07:30am 5.0 2.7 5.0 100 0.0 WSW 6 7 3 4 1017.3 1017.3 0.2
31/07:00am 4.9 3.7 4.6 98 0.1 CALM 0 0 0 0 1017.0 1017.0 0.2
31/06:30am 7.3 5.2 5.9 91 0.6 NNE 6 9 3 5 1016.5 1016.5 0.2
31/06:00am 6.6 4.6 6.2 97 0.2 NW 6 9 3 5 1016.2 1016.2 0.2
31/05:30am 5.3 2.7 4.4 94 0.4 WSW 7 9 4 5 1015.9 1015.9 0.2
31/05:00am 6.5 4.3 5.1 91 0.6 W 6 7 3 4 1015.8 1015.8 0.2
31/04:30am 7.0 4.6 5.3 89 0.8 WNW 7 9 4 5 1016.0 1016.0 0.2
31/04:00am 7.3 5.0 5.0 85 1.0 WSW 6 11 3 6 1015.9 1015.9 0.2
31/03:30am 8.8 7.7 5.0 77 1.7 CALM 0 0 0 0 1015.7 1015.7 0.2
31/03:00am 10.3 8.1 5.3 71 2.3 NW 6 9 3 5 1015.6 1015.6 0.2
31/02:30am 11.1 8.1 6.0 71 2.4 NNW 11 15 6 8 1015.5 1015.5 0.2
31/02:00am 11.2 8.7 6.5 73 2.2 N 9 9 5 5 1015.9 1015.9 0.2
31/01:30am 12.7 10.7 7.2 69 2.7 ENE 7 9 4 5 1015.9 1015.9 0.2
31/01:00am 13.9 11.2 5.5 57 4.0 N 9 13 5 7 1016.2 1016.2 0.2
31/12:30am 14.4 10.8 5.0 53 4.4 NNW 13 17 7 9 1016.2 1016.2 0.2
31/12:00am 14.2 10.7 5.3 55 4.2 NNW 13 17 7 9 1016.4 1016.4 0.2
 
Date/Time
CST
Temp
°C
App
Temp
°C
Dew
Point
°C
Rel
Hum
%
Delta-T
°C
Wind Press
QNH
hPa
Press
MSL
hPa
Rain since
9am
mm
Dir  Spd
km/h
Gust
km/h
Spd
kts
Gust
kts
30/11:30pm 14.0 10.5 5.6 57 4.0 N 13 17 7 9 1016.4 1016.4 0.2
30/11:00pm 13.0 10.4 7.7 70 2.6 NNW 11 13 6 7 1016.5 1016.5 0.2
30/10:30pm 13.9 10.2 6.3 60 3.6 WNW 15 17 8 9 1017.0 1017.0 0.0
30/10:00pm 15.3 11.5 4.1 47 5.2 NW 13 19 7 10 1016.8 1016.8 0.0
30/09:30pm 16.7 12.2 2.3 38 6.5 NNW 15 19 8 10 1016.4 1016.4 0.0
30/09:00pm 17.1 12.0 0.7 33 7.2 NNW 17 22 9 12 1016.3 1016.3 0.0
30/08:30pm 16.6 12.3 0.7 34 6.9 NW 13 19 7 10 1016.8 1016.8 0.0
30/08:00pm 16.5 12.1 0.6 34 6.9 NNW 13 15 7 8 1016.7 1016.7 0.0
30/07:30pm 15.5 11.9 0.9 37 6.3 N 9 13 5 7 1016.3 1016.3 0.0
30/07:00pm 15.9 12.7 0.9 36 6.5 NNW 7 11 4 6 1016.1 1016.1 0.0
30/06:30pm 15.9 12.1 1.6 38 6.3 N 11 13 6 7 1015.7 1015.7 0.0
30/06:00pm 16.7 12.6 2.3 38 6.5 N 13 15 7 8 1015.2 1015.3 0.0
30/05:30pm 17.2 13.1 2.0 36 6.8 N 13 17 7 9 1015.1 1015.2 0.0
30/05:00pm 18.2 13.2 1.3 32 7.6 N 17 20 9 11 1014.9 1015.0 0.0
30/04:30pm 18.9 13.3 1.0 30 8.0 ENE 20 26 11 14 1014.6 1014.7 0.0
30/04:00pm 19.4 13.5 -0.6 26 8.7 NNW 20 30 11 16 1014.8 1014.9 0.0
30/03:30pm 19.8 13.8 -1.3 24 9.1 NW 20 28 11 15 1015.7 1015.7 0.0
30/03:00pm 20.1 13.7 -1.7 23 9.3 NNW 22 30 12 16 1015.8 1015.8 0.0
30/02:30pm 19.9 12.8 -1.2 24 9.1 NNW 26 37 14 20 1016.0 1016.0 0.0
30/02:00pm 20.7 14.1 -0.6 24 9.4 NW 24 35 13 19 1016.3 1016.3 0.0
30/01:30pm 19.6 11.3 -1.5 24 9.0 NW 32 41 17 22 1016.9 1016.9 0.0
30/01:00pm 20.1 12.5 0.5 27 8.8 NW 30 37 16 20 1017.7 1017.7 0.0
30/12:30pm 19.4 12.1 2.3 32 7.9 NNW 30 39 16 21 1018.3 1018.3 0.0
30/12:00pm 18.4 12.1 3.5 37 7.0 NNW 26 33 14 18 1018.9 1018.9 0.0
30/11:30am 19.2 12.1 3.8 36 7.3 NW 30 39 16 21 1019.3 1019.3 0.0
30/11:00am 17.5 12.2 4.8 43 6.1 NNW 22 32 12 17 1019.8 1019.8 0.0
30/10:30am 15.6 10.8 5.8 52 4.7 N 20 28 11 15 1020.1 1020.1 0.0
30/10:00am 14.1 10.0 6.0 58 3.9 NNW 17 24 9 13 1020.6 1020.6 0.0
30/09:30am 11.6 7.5 6.1 69 2.6 N 17 22 9 12 1020.7 1020.7 0.0
30/09:00am 9.2 5.4 5.8 79 1.5 N 15 20 8 11 1020.6 1020.6 0.0
30/08:30am 8.2 4.8 6.0 86 1.0 N 13 17 7 9 1020.9 1020.9 0.0
30/08:00am 7.6 4.3 6.5 93 0.5 NNE 13 19 7 10 1020.9 1020.9 0.0
30/07:30am 7.2 4.0 6.9 98 0.1 NNE 13 17 7 9 1021.2 1021.2 0.0
30/07:00am 7.4 4.3 7.1 98 0.1 NNE 13 17 7 9 1021.1 1021.1 0.0
30/06:30am 6.4 3.9 6.4 100 0.0 NNE 9 13 5 7 1020.9 1020.9 0.0
30/06:00am 6.1 3.1 6.1 100 0.0 NE 11 13 6 7 1021.0 1021.0 0.0
30/05:30am 5.3 1.8 5.3 100 0.0 NE 13 15 7 8 1020.9 1020.9 0.0
30/05:00am 5.3 2.1 5.3 100 0.0 NE 11 13 6 7 1021.0 1021.0 0.0
30/04:30am 4.5 1.6 4.5 100 0.0 ENE 9 11 5 6 1021.1 1021.1 0.0
30/04:00am 1.8 -0.3 1.7 99 0.0 NE 2 7 1 4 1021.5 1021.5 0.0
30/03:30am 2.9 1.4 2.8 99 0.0 CALM 0 0 0 0 1021.6 1021.6 0.0
30/03:00am 2.3 0.7 2.2 99 0.0 CALM 0 0 0 0 1022.0 1022.0 0.0
30/02:30am 2.7 1.1 2.6 99 0.0 CALM 0 0 0 0 1022.2 1022.2 0.0
30/02:00am 3.6 2.2 3.5 99 0.0 CALM 0 0 0 0 1022.3 1022.3 0.0
30/01:30am 3.7 2.3 3.6 99 0.0 CALM 0 0 0 0 1022.8 1022.8 0.0
30/01:00am 4.5 3.2 4.1 97 0.2 CALM 0 0 0 0 1022.9 1022.9 0.0
30/12:30am 4.4 3.0 3.8 96 0.2 CALM 0 0 0 0 1022.9 1022.9 0.0
30/12:00am 4.6 3.3 3.9 95 0.3 CALM 0 0 0 0 1023.0 1023.0 0.0
 
Date/Time
CST
Temp
°C
App
Temp
°C
Dew
Point
°C
Rel
Hum
%
Delta-T
°C
Wind Press
QNH
hPa
Press
MSL
hPa
Rain since
9am
mm
Dir  Spd
km/h
Gust
km/h
Spd
kts
Gust
kts
29/11:30pm 4.7 2.6 4.0 95 0.3 NNE 4 7 2 4 1023.2 1023.2 0.0
29/11:00pm 5.2 3.2 4.5 95 0.3 NE 4 6 2 3 1023.6 1023.6 0.0
29/10:30pm 5.3 4.1 4.6 95 0.3 CALM 0 0 0 0 1023.7 1023.7 0.0
29/10:00pm 4.7 3.4 4.1 96 0.3 CALM 0 0 0 0 1023.8 1023.8 0.0
29/09:30pm 5.2 3.9 3.9 91 0.5 CALM 0 0 0 0 1023.7 1023.7 0.0
29/09:00pm 6.4 5.3 5.0 91 0.6 CALM 0 0 0 0 1023.7 1023.7 0.0
29/08:30pm 6.5 5.2 4.2 85 1.0 CALM 0 0 0 0 1023.7 1023.7 0.0
29/08:00pm 7.4 6.3 4.9 84 1.1 CALM 0 0 0 0 1023.6 1023.6 0.0
29/07:30pm 8.2 7.2 5.5 83 1.2 CALM 0 0 0 0 1023.4 1023.4 0.0
29/07:00pm 9.3 7.1 5.5 77 1.7 E 6 9 3 5 1023.5 1023.5 0.0
29/06:30pm 9.6 8.5 5.2 74 2.0 CALM 0 0 0 0 1023.4 1023.4 0.0
29/06:00pm 11.5 9.4 5.8 68 2.6 SSW 6 7 3 4 1023.2 1023.2 0.0
29/05:30pm 12.9 10.6 5.8 62 3.3 W 7 7 4 4 1023.2 1023.2 0.0
29/05:00pm 14.8 12.2 6.1 56 4.2 WNW 9 11 5 6 1023.0 1023.0 0.0
29/04:30pm 15.9 13.7 6.1 52 4.7 W 7 13 4 7 1022.9 1022.9 0.0
29/04:00pm 16.0 13.0 6.2 52 4.8 WSW 11 17 6 9 1022.9 1022.9 0.0
29/03:30pm 16.0 12.9 5.6 50 5.0 W 11 19 6 10 1023.0 1023.0 0.0
29/03:00pm 15.6 11.5 6.1 53 4.6 WSW 17 22 9 12 1023.3 1023.3 0.0
29/02:30pm 15.7 12.2 5.6 51 4.8 SW 13 22 7 12 1023.2 1023.2 0.0
29/02:00pm 16.2 14.5 6.1 51 4.9 SSW 4 13 2 7 1023.3 1023.3 0.0
29/01:30pm 16.0 13.4 6.2 52 4.7 WNW 9 19 5 10 1023.5 1023.5 0.0
29/01:00pm 15.2 13.2 6.2 55 4.3 WSW 6 17 3 9 1023.9 1023.9 0.0
29/12:30pm 14.2 11.6 6.1 58 3.9 WSW 9 17 5 9 1024.4 1024.4 0.0
29/12:00pm 13.7 11.1 6.1 60 3.6 W 9 19 5 10 1025.1 1025.1 0.0
29/11:30am 13.0 10.4 6.1 63 3.3 WNW 9 17 5 9 1025.6 1025.6 0.0
29/11:00am 12.4 9.4 6.0 65 3.0 NW 11 17 6 9 1026.4 1026.4 0.0
29/10:30am 11.2 8.6 5.9 70 2.5 NNW 9 15 5 8 1026.5 1026.5 0.0
29/10:00am 10.3 8.8 6.6 78 1.7 NNE 4 7 2 4 1026.8 1026.8 0.0
29/09:30am 9.5 8.4 6.8 83 1.3 NW 2 7 1 4 1027.1 1027.1 0.0
29/09:00am 7.6 5.5 6.7 94 0.4 NW 7 9 4 5 1027.1 1027.1 0.0
29/08:30am 6.0 3.9 6.0 100 0.0 NNW 6 9 3 5 1026.7 1026.7 0.0
29/08:00am 5.0 3.9 5.0 100 0.0 CALM 0 0 0 0 1026.8 1026.8 0.0
29/07:30am 4.0 1.4 4.0 100 0.0 N 7 11 4 6 1026.2 1026.2 0.0
29/07:00am 3.7 0.6 3.7 100 0.0 NW 9 13 5 7 1026.4 1026.4 0.0
29/06:30am 4.0 1.5 4.0 100 0.0 NNW 6 7 3 4 1026.2 1026.2 0.0
29/06:00am 3.7 1.2 3.7 100 0.0 WNW 6 7 3 4 1026.1 1026.1 0.0
29/05:30am 4.5 2.0 4.5 100 0.0 WNW 7 11 4 6 1025.9 1025.9 0.0
29/05:00am 4.8 2.3 4.8 100 0.0 WNW 7 9 4 5 1025.8 1025.8 0.0
29/04:30am 5.4 3.2 5.4 100 0.0 WNW 6 7 3 4 1025.9 1025.9 0.0
29/04:00am 6.1 4.4 6.1 100 0.0 NW 4 7 2 4 1025.8 1025.8 0.0
29/03:30am 7.2 5.2 7.1 99 0.0 NW 7 11 4 6 1025.8 1025.8 0.0
29/03:00am 8.1 5.9 6.1 87 0.9 W 7 9 4 5 1025.6 1025.6 0.0
29/02:30am 10.5 7.8 7.4 81 1.5 WSW 11 15 6 8 1026.2 1026.2 0.0
29/02:00am 10.6 8.4 8.0 84 1.3 SW 9 11 5 6 1026.3 1026.3 0.0
29/01:30am 10.7 9.0 8.3 85 1.2 W 7 11 4 6 1026.3 1026.3 0.0
29/01:00am 10.8 8.8 8.7 87 1.0 W 9 13 5 7 1026.2 1026.2 0.0
29/12:30am 11.1 8.7 8.8 86 1.1 W 11 17 6 9 1026.4 1026.4 0.0
29/12:00am 11.1 9.1 8.8 86 1.1 W 9 11 5 6 1026.4 1026.4 0.0
 
Date/Time
CST
Temp
°C
App
Temp
°C
Dew
Point
°C
Rel
Hum
%
Delta-T
°C
Wind Press
QNH
hPa
Press
MSL
hPa
Rain since
9am
mm
Dir  Spd
km/h
Gust
km/h
Spd
kts
Gust
kts
28/11:30pm 11.3 8.9 8.5 83 1.4 WNW 11 15 6 8 1026.4 1026.4 0.0
28/11:00pm 11.4 9.1 7.3 76 2.0 WNW 9 13 5 7 1026.5 1026.5 0.0
28/10:30pm 11.8 9.0 7.1 73 2.2 W 11 15 6 8 1026.7 1026.7 0.0
28/10:00pm 11.6 9.3 5.9 68 2.7 W 7 9 4 5 1027.1 1027.1 0.0
28/09:30pm 11.8 9.2 5.9 67 2.7 NW 9 11 5 6 1027.4 1027.4 0.0
28/09:00pm 11.7 9.1 6.0 68 2.7 NW 9 11 5 6 1027.4 1027.4 0.0
28/08:30pm 11.8 9.5 5.9 67 2.7 NW 7 11 4 6 1027.4 1027.4 0.0
28/08:00pm 12.1 9.4 5.7 65 3.0 NNW 9 13 5 7 1027.4 1027.4 0.0
28/07:30pm 12.1 9.5 5.9 66 2.9 NW 9 13 5 7 1027.4 1027.4 0.0
28/07:00pm 12.2 8.8 5.8 65 3.0 NW 13 17 7 9 1027.5 1027.5 0.0
28/06:30pm 12.3 8.9 5.7 64 3.1 NNW 13 15 7 8 1027.5 1027.5 0.0
28/06:00pm 12.4 9.7 5.8 64 3.1 NNW 9 15 5 8 1027.2 1027.2 0.0
28/05:30pm 12.5 9.5 5.9 64 3.1 NW 11 17 6 9 1027.4 1027.4 0.0
28/05:00pm 12.7 9.2 5.6 62 3.3 W 13 19 7 10 1027.5 1027.5 0.0
28/04:30pm 12.8 8.6 5.7 62 3.3 WNW 17 20 9 11 1027.4 1027.4 0.0
28/04:00pm 12.9 8.7 5.6 61 3.4 W 17 20 9 11 1027.5 1027.5 0.0
28/03:30pm 12.9 9.1 5.8 62 3.3 W 15 20 8 11 1027.4 1027.4 0.0
28/03:00pm 12.8 8.6 5.7 62 3.3 W 17 24 9 13 1027.5 1027.5 0.0
28/02:30pm 12.9 9.1 5.6 61 3.4 W 15 20 8 11 1027.4 1027.4 0.0
28/02:00pm 13.0 9.2 5.7 61 3.4 WNW 15 22 8 12 1027.5 1027.5 0.0
28/01:30pm 12.6 8.0 5.8 63 3.2 WNW 19 24 10 13 1027.9 1027.9 0.0
28/01:00pm 12.5 9.1 6.1 65 3.0 W 13 19 7 10 1028.3 1028.3 0.0
28/12:30pm 12.4 8.6 5.6 63 3.1 W 15 24 8 13 1028.8 1028.8 0.0
28/12:00pm 12.5 8.6 5.4 62 3.3 WNW 15 19 8 10 1029.2 1029.2 0.0
28/11:30am 12.6 9.0 5.1 60 3.4 WSW 13 19 7 10 1029.5 1029.5 0.0

Other Formats:

Comma delimited format used in spreadsheet applications
http://www.bom.gov.au/fwo/IDS60801/IDS60801.95687.axf

JavaScript Object Notation format (JSON) in row-major order
http://www.bom.gov.au/fwo/IDS60801/IDS60801.95687.json